Latest Coastal Weather Observations for Coconut Island

IDQ60701

Issued at 4:12 am EST Friday 29 May 2015 (issued every 10 minutes, with the page automatically refreshed every 10 minutes)

About coastal observations | Map of coastal stations | Coastal observations for QLD | Marine services | Other Formats
Station Details ID: 027054 Name: COCONUT ISLAND Lat: -10.05 Lon: 143.07 Height: 3.5 m
Data from the previous 72 hours. | See also: Recent months at Coconut Island
Date/Time
EST
Temp

°C
Wind Pressure Rain
since 9am
mm
Weather Cloud Vis
km
Sea
Height
m
Swell
Dir
 
Speed
knots
Gust
knots
hPa Trend Height
m
Period
s
Dir
29/04:00am 26.7 SE 6 11 1010.6 - 0.0 - - - - - - -
29/03:30am 26.8 SE 5 12 1010.7 - 0.0 - - - - - - -
29/03:00am 26.6 SE 5 13 1010.9 - 0.0 - - - - - - -
29/02:30am 26.6 SE 5 11 1011.0 - 0.0 - - - - - - -
29/02:00am 26.8 SE 6 15 1011.2 - 0.0 - - - - - - -
29/01:30am 26.9 ESE 8 15 1011.4 - 0.0 - - - - - - -
29/01:00am 26.7 ESE 8 15 1011.8 - 0.0 - - - - - - -
29/12:30am 26.9 ESE 8 16 1012.0 - 0.0 - - - - - - -
29/12:00am 26.9 ESE 7 14 1012.3 - 0.0 - - - - - - -
 
Date/Time
EST
Temp

°C
Wind Pressure Rain
since 9am
mm
Weather Cloud Vis
km
Sea
Height
m
Swell
Dir
 
Speed
knots
Gust
knots
hPa Trend Height
m
Period
s
Dir
28/11:30pm 27.0 SE 7 14 1012.3 - 0.0 - - - - - - -
28/11:00pm 27.0 ESE 8 15 1012.4 - 0.0 - - - - - - -
28/10:30pm 27.1 ESE 8 14 1012.4 - 0.0 - - - - - - -
28/10:00pm 27.0 ESE 9 15 1012.5 - 0.0 - - - - - - -
28/09:30pm 27.1 ESE 10 18 1012.5 - 0.0 - - - - - - -
28/09:00pm 27.0 SE 8 17 1012.2 - 0.0 - - - - - - -
28/08:30pm 27.2 SE 9 16 1011.8 - 0.0 - - - - - - -
28/08:00pm 27.3 ESE 9 15 1011.4 - 0.0 - - - - - - -
28/07:30pm 27.2 SE 7 14 1010.9 - 0.0 - - - - - - -
28/07:00pm 27.3 SE 8 16 1010.3 - 0.0 - - - - - - -
28/06:30pm 27.4 SE 7 16 1010.0 - 0.0 - - - - - - -
28/06:00pm 27.6 SE 7 15 1009.9 - 0.0 - - - - - - -
28/05:30pm 28.4 SE 7 15 1009.7 - 0.0 - - - - - - -
28/05:00pm 29.4 SE 5 12 1009.2 - 0.0 - - - - - - -
28/04:30pm 29.8 SE 6 13 1009.1 - 0.0 - - - - - - -
28/04:00pm 29.8 SE 6 13 1009.1 - 0.0 - - - - - - -
28/03:30pm 29.4 SE 6 16 1009.2 - 0.0 - - - - - - -
28/03:00pm 30.4 ESE 6 13 1009.4 - 0.0 - - - - - - -
28/02:30pm 30.9 SE 7 15 1009.3 - 0.0 - - - - - - -
28/02:00pm 30.7 SE 8 13 1009.5 - 0.0 - - - - - - -
28/01:30pm 32.4 SE 5 10 1009.9 - 0.0 - - - - - - -
28/01:00pm 32.3 SE 5 13 1010.2 - 0.0 - - - - - - -
28/12:30pm 32.2 SE 4 9 1010.4 - 0.0 - - - - - - -
28/12:00pm 31.4 SE 3 9 1010.8 - 0.0 - - - - - - -
28/11:30am 31.6 SE 2 7 1011.1 - 0.0 - - - - - - -
28/11:00am 31.6 SE 3 11 1011.4 - 0.0 - - - - - - -
28/10:30am 30.6 SE 4 10 1011.6 - 0.0 - - - - - - -
28/10:00am 30.1 SE 3 7 1011.5 - 0.0 - - - - - - -
28/09:30am 29.3 SE 3 7 1012.0 - 0.0 - - - - - - -
28/09:00am 27.9 SE 3 9 1012.2 - 1.0 - - - - - - -
28/08:30am 27.4 SE 4 11 1012.0 - 1.0 - - - - - - -
28/08:00am 27.0 SE 5 11 1011.5 - 1.0 - - - - - - -
28/07:30am 26.8 SE 7 13 1011.5 - 1.0 - - - - - - -
28/07:00am 26.5 SE 5 15 1010.7 - 1.0 - - - - - - -
28/06:30am 26.5 SE 6 13 1010.5 - 1.0 - - - - - - -
28/06:00am 26.6 SE 4 9 1010.2 - 1.0 - - - - - - -
28/05:30am 26.6 SE 4 11 1010.0 - 1.0 - - - - - - -
28/05:00am 26.6 SE 3 7 1010.0 - 1.0 - - - - - - -
28/04:30am 26.5 SSE 3 6 1009.6 - 0.8 - - - - - - -
28/04:00am 26.5 SSE 3 6 1009.7 - 0.8 - - - - - - -
28/03:30am 26.4 SSE 4 9 1009.7 - 0.8 - - - - - - -
28/03:00am 26.7 SSE 3 9 1009.8 - 0.8 - - - - - - -
28/02:30am 26.6 SE 3 9 1010.2 - 0.8 - - - - - - -
28/02:00am 26.6 SSE 3 7 1010.3 - 0.8 - - - - - - -
28/01:30am 26.7 SSE 4 8 1010.2 - 0.8 - - - - - - -
28/01:00am 26.7 SSE 5 11 1010.5 - 0.8 - - - - - - -
28/12:30am 26.6 SSE 4 7 1010.7 - 0.8 - - - - - - -
28/12:00am 26.7 SSE 4 8 1010.8 - 0.8 - - - - - - -
 
Date/Time
EST
Temp

°C
Wind Pressure Rain
since 9am
mm
Weather Cloud Vis
km
Sea
Height
m
Swell
Dir
 
Speed
knots
Gust
knots
hPa Trend Height
m
Period
s
Dir
27/11:30pm 26.6 SSE 4 10 1011.1 - 0.8 - - - - - - -
27/11:00pm 26.7 SSE 4 7 1011.3 - 0.8 - - - - - - -
27/10:30pm 26.6 SSE 4 7 1011.5 - 0.8 - - - - - - -
27/10:00pm 26.5 SSE 4 6 1011.6 - 0.8 - - - - - - -
27/09:30pm 26.2 SSE 4 7 1011.6 - 0.8 - - - - - - -
27/09:00pm 26.4 SSE 6 12 1011.5 - 0.4 - - - - - - -
27/08:30pm 26.4 SSE 4 6 1011.4 - 0.4 - - - - - - -
27/08:00pm 26.4 SSE 5 9 1011.3 - 0.4 - - - - - - -
27/07:30pm 26.6 SSE 6 9 1011.0 - 0.2 - - - - - - -
27/07:00pm 26.6 SSE 4 6 1010.6 - 0.2 - - - - - - -
27/06:30pm 26.4 SSE 5 13 1010.4 - 0.2 - - - - - - -
27/06:00pm 26.7 SSE 4 7 1010.2 - 0.2 - - - - - - -
27/05:30pm 27.0 SSE 5 7 1009.9 - 0.2 - - - - - - -
27/05:00pm 26.9 SSE 5 8 1009.9 - 0.2 - - - - - - -
27/04:30pm 27.8 SSE 5 7 1009.9 - 0.0 - - - - - - -
27/04:00pm 28.2 SSE 5 8 1009.7 - 0.0 - - - - - - -
27/03:30pm 28.4 SSE 5 9 1009.8 - 0.0 - - - - - - -
27/03:00pm 28.8 SSE 5 7 1009.9 - 0.0 - - - - - - -
27/02:30pm 28.9 SSE 5 9 1009.8 - 0.0 - - - - - - -
27/02:00pm 29.9 SSE 5 7 1010.2 - 0.0 - - - - - - -
27/01:30pm 31.4 SSE 4 9 1010.6 - 0.0 - - - - - - -
27/01:00pm 30.7 SSE 5 8 1011.1 - 0.0 - - - - - - -
27/12:30pm 31.0 SSE 5 7 1011.6 - 0.0 - - - - - - -
27/12:00pm 30.9 SSE 5 8 1012.1 - 0.0 - - - - - - -
27/11:30am 30.2 SSE 5 8 1012.6 - 0.0 - - - - - - -
27/11:00am 29.5 SSE 4 8 1013.1 - 0.0 - - - - - - -
27/10:30am 28.1 SSE 4 7 1013.5 - 0.0 - - - - - - -
27/10:00am 27.8 SSE 4 9 1013.6 - 0.0 - - - - - - -
27/09:30am 28.6 SSE 4 7 1013.5 - 0.0 - - - - - - -
27/09:00am 27.7 SSE 5 7 1013.4 - 0.2 - - - - - - -
27/08:30am 27.3 SSE 4 6 1013.1 - 0.2 - - - - - - -
27/08:00am 27.4 SSE 5 9 1012.8 - 0.2 - - - - - - -
27/07:30am 26.4 SSE 4 9 1012.4 - 0.2 - - - - - - -
27/07:00am 25.6 SSE 5 11 1012.3 - 0.2 - - - - - - -
27/06:30am 25.1 SE 7 15 1012.0 - 0.2 - - - - - - -
27/06:00am 25.3 SSE 4 10 1011.7 - 0.2 Recent precip. - - - - - -
27/05:30am 25.8 SE 5 13 1011.5 - 0.0 - - - - - - -
27/05:00am 25.4 SE 7 17 1011.7 - 0.0 - - - - - - -
27/04:30am 26.4 SSE 5 13 1011.4 - 0.0 - - - - - - -
27/04:00am 25.8 SE 4 15 1011.2 - 0.0 - - - - - - -
27/03:30am 26.5 SSE 5 9 1011.1 - 0.0 - - - - - - -
27/03:00am 26.6 SSE 5 9 1011.4 - 0.0 - - - - - - -
27/02:30am 26.6 SSE 4 8 1011.6 - 0.0 - - - - - - -
27/02:00am 26.7 SE 5 9 1011.7 - 0.0 - - - - - - -
27/01:30am 26.6 SE 5 9 1012.0 - 0.0 - - - - - - -
27/01:00am 26.4 SSE 4 10 1012.2 - 0.0 - - - - - - -
27/12:30am 26.6 SE 5 13 1012.5 - 0.0 - - - - - - -
27/12:00am 26.6 SE 5 11 1012.6 - 0.0 - - - - - - -
 
Date/Time
EST
Temp

°C
Wind Pressure Rain
since 9am
mm
Weather Cloud Vis
km
Sea
Height
m
Swell
Dir
 
Speed
knots
Gust
knots
hPa Trend Height
m
Period
s
Dir
26/11:30pm 26.7 SE 6 15 1012.7 - 0.0 - - - - - - -
26/11:00pm 26.8 SE 6 13 1013.0 - 0.0 - - - - - - -
26/10:30pm 26.8 SE 7 14 1013.2 - 0.0 - - - - - - -
26/10:00pm 27.0 SE 6 13 1013.2 - 0.0 - - - - - - -
26/09:30pm 27.0 SE 6 14 1013.3 - 0.0 - - - - - - -
26/09:00pm 26.9 SE 4 11 1012.9 - 0.0 - - - - - - -
26/08:30pm 27.1 SSE 5 8 1012.5 - 0.0 - - - - - - -
26/08:00pm 27.1 SSE 4 8 1012.3 - 0.0 - - - - - - -
26/07:30pm 27.3 SE 5 10 1012.0 - 0.0 - - - - - - -
26/07:00pm 27.3 SE 5 10 1011.8 - 0.0 - - - - - - -
26/06:30pm 27.4 SE 4 10 1011.5 - 0.0 - - - - - - -
26/06:00pm 27.7 SE 4 8 1011.4 - 0.0 - - - - - - -
26/05:30pm 28.9 SE 4 10 1011.2 - 0.0 - - - - - - -
26/05:00pm 29.8 SE 5 13 1011.1 - 0.0 - - - - - - -
26/04:30pm 30.2 SSE 5 11 1011.3 - 0.0 - - - - - - -
26/04:00pm 30.8 SE 5 12 1011.3 - 0.0 - - - - - - -
26/03:30pm 31.3 SE 5 10 1011.3 - 0.0 - - - - - - -
26/03:00pm 31.6 SE 3 11 1011.5 - 0.0 - - - - - - -
26/02:30pm 32.1 SSE 5 11 1011.7 - 0.0 - - - - - - -
26/02:00pm 32.2 SSE 4 9 1012.0 - 0.0 - - - - - - -
26/01:30pm 32.4 SE 4 10 1012.4 - 0.0 - - - - - - -
26/01:00pm 32.1 SSE 5 10 1012.7 - 0.0 - - - - - - -
26/12:30pm 31.7 SSE 4 7 1013.1 - 0.0 - - - - - - -
26/12:00pm 32.2 SE 4 10 1013.5 - 0.0 - - - - - - -
26/11:30am 32.2 SE 5 10 1013.9 - 0.0 - - - - - - -
26/11:00am 31.5 SE 5 12 1014.2 - 0.0 - - - - - - -
26/10:30am 30.9 SE 6 11 1014.4 - 0.0 - - - - - - -
26/10:00am 29.4 SSE 5 9 1014.6 - 0.0 - - - - - - -
26/09:30am 30.6 SE 4 10 1014.8 - 0.0 - - - - - - -
26/09:00am 29.4 SSE 5 10 1014.7 - 0.0 - - - - - - -
26/08:30am 28.5 SSE 5 8 1014.4 - 0.0 - - - - - - -
26/08:00am 28.2 SE 5 11 1013.9 - 0.0 - - - - - - -
26/07:30am 27.3 SE 5 10 1013.7 - 0.0 - - - - - - -
26/07:00am 26.5 SE 6 12 1013.5 - 0.0 - - - - - - -
26/06:30am 26.3 SE 7 14 1013.3 - 0.0 - - - - - - -
26/06:00am 26.4 SE 5 12 1012.9 - 0.0 - - - - - - -
26/05:30am 26.5 SSE 6 14 1012.8 - 0.0 - - - - - - -
26/05:00am 26.5 SSE 4 10 1012.7 - 0.0 - - - - - - -
26/04:30am 26.4 SE 6 11 1012.6 - 0.0 - - - - - - -

Other Formats:

Comma delimited format used in spreadsheet applications
http://www.bom.gov.au/fwo/IDQ60701/IDQ60701.94182.axf

JavaScript Object Notation format (JSON) in row-major order
http://www.bom.gov.au/fwo/IDQ60701/IDQ60701.94182.json